Time;durP1;ratioP1;P1;durP2;ratioP2;P2;SDS_P1;SDS_P2;PMS_P1;PMS_P2;Temp;Humidity;BMP_temperature;BMP_pressure;BME280_temperature;BME280_humidity;BME280_pressure;Samples;Min_cycle;Max_cycle;Signal;HPM_P1;HPM_P2
2022/09/04 00:00:09;;;;;;;4.80;4.10;;;14.80;99.90;;;;;;4972782;28;20800;-79
2022/09/04 00:03:00;;;;;;;7.00;4.23;;;14.80;99.90;;;;;;4968940;28;20488;-79
2022/09/04 00:05:32;;;;;;;4.60;4.20;;;14.70;99.90;;;;;;4973827;28;20505;-82
2022/09/04 00:08:14;;;;;;;4.17;3.40;;;14.70;99.90;;;;;;4973879;28;20454;-80
2022/09/04 00:10:47;;;;;;;4.30;3.90;;;14.70;99.90;;;;;;4973760;28;20457;-82
2022/09/04 00:13:21;;;;;;;5.10;3.87;;;14.70;99.90;;;;;;4973935;28;20543;-80
2022/09/04 00:15:55;;;;;;;4.33;3.90;;;14.70;99.90;;;;;;4972411;28;20891;-79
2022/09/04 00:18:28;;;;;;;6.30;3.90;;;14.70;99.90;;;;;;4973819;28;20453;-82
2022/09/04 00:21:02;;;;;;;4.40;3.63;;;14.60;99.90;;;;;;4973751;28;20461;-82
2022/09/04 00:23:37;;;;;;;4.93;3.33;;;14.60;99.90;;;;;;4973772;28;20493;-79
2022/09/04 00:26:10;;;;;;;5.60;4.53;;;14.50;99.90;;;;;;4973901;28;20449;-79
2022/09/04 00:28:41;;;;;;;6.50;3.77;;;14.50;99.90;;;;;;4973695;28;20950;-82
2022/09/04 00:31:19;;;;;;;8.00;4.10;;;14.50;99.90;;;;;;4972301;28;20894;-80
2022/09/04 00:33:54;;;;;;;6.90;3.90;;;14.50;99.90;;;;;;4973589;28;20453;-81
2022/09/04 00:36:26;;;;;;;6.70;3.70;;;14.40;99.90;;;;;;4973598;28;20454;-79
2022/09/04 00:38:58;;;;;;;6.67;3.83;;;14.40;99.90;;;;;;4973717;28;20533;-81
2022/09/04 00:41:30;;;;;;;4.57;3.63;;;14.30;99.90;;;;;;4973618;28;20828;-79
2022/09/04 00:44:31;;;;;;;4.27;3.87;;;14.30;99.90;;;;;;4974668;28;20529;-78
2022/09/04 00:47:29;;;;;;;4.10;3.70;;;14.20;99.90;;;;;;4977192;28;20444;-80
2022/09/04 00:50:10;;;;;;;7.77;3.87;;;14.20;99.90;;;;;;4977033;28;20461;-79
2022/09/04 00:53:05;;;;;;;4.47;4.07;;;14.20;99.90;;;;;;4976932;28;20540;-81
2022/09/04 00:55:52;;;;;;;6.03;4.50;;;14.20;99.90;;;;;;4976980;28;20446;-81
2022/09/04 00:58:41;;;;;;;5.27;3.83;;;14.20;99.90;;;;;;4977010;28;20450;-81
2022/09/04 01:01:14;;;;;;;3.80;3.40;;;14.20;99.90;;;;;;4975681;28;20814;-78
2022/09/04 01:04:23;;;;;;;4.33;3.70;;;14.10;99.90;;;;;;4976773;28;20842;-78
2022/09/04 01:07:02;;;;;;;4.80;3.87;;;14.10;99.90;;;;;;4961841;28;20828;-78
2022/09/04 01:09:58;;;;;;;4.93;4.00;;;14.30;99.90;;;;;;4974757;28;20462;-80
2022/09/04 01:12:33;;;;;;;5.40;4.37;;;14.20;99.90;;;;;;4976688;28;20450;-79
2022/09/04 01:15:13;;;;;;;4.93;3.63;;;14.20;99.90;;;;;;4975140;28;20445;-78
2022/09/04 01:17:49;;;;;;;5.10;4.53;;;14.20;99.90;;;;;;4976641;28;20489;-80
2022/09/04 01:20:26;;;;;;;6.17;4.80;;;13.80;99.90;;;;;;4973595;28;20450;-78
2022/09/04 01:23:15;;;;;;;6.00;4.70;;;14.20;99.90;;;;;;4976582;28;20454;-78
2022/09/04 01:26:15;;;;;;;4.50;4.10;;;14.10;99.90;;;;;;4976392;28;20465;-78
2022/09/04 01:28:53;;;;;;;4.77;4.10;;;14.10;99.90;;;;;;4943974;28;20450;-79
2022/09/04 01:31:31;;;;;;;4.57;3.97;;;14.10;99.90;;;;;;4975137;28;20450;-80
2022/09/04 01:34:09;;;;;;;4.90;4.40;;;14.00;99.90;;;;;;4976432;28;20457;-79
2022/09/04 01:36:41;;;;;;;5.87;4.57;;;14.00;99.90;;;;;;4976213;28;20965;-82
2022/09/04 01:39:08;;;;;;;4.37;3.97;;;;;;;;;;4976163;28;20462;-82
2022/09/04 01:41:42;;;;;;;4.40;3.93;;;14.00;99.90;;;;;;4976176;28;20449;-79
2022/09/04 01:44:12;;;;;;;7.57;4.53;;;13.90;99.90;;;;;;4974760;28;20497;-78
2022/09/04 01:46:49;;;;;;;4.20;3.70;;;13.90;99.90;;;;;;4975940;28;20450;-78
2022/09/04 01:49:25;;;;;;;8.63;4.33;;;13.80;99.90;;;;;;4975998;28;20464;-78
2022/09/04 01:52:02;;;;;;;4.20;3.80;;;13.70;99.90;;;;;;4975848;28;20454;-77
2022/09/04 01:54:42;;;;;;;5.23;4.10;;;13.80;99.90;;;;;;4975439;28;20457;-78
2022/09/04 01:57:22;;;;;;;3.80;3.27;;;13.80;99.90;;;;;;4975694;28;20458;-78
2022/09/04 02:00:01;;;;;;;3.70;3.37;;;13.80;99.90;;;;;;4974578;28;20813;-77
2022/09/04 02:02:37;;;;;;;3.70;3.30;;;13.80;99.90;;;;;;4975767;28;20453;-80
2022/09/04 02:05:12;;;;;;;3.57;3.03;;;13.70;99.90;;;;;;4975561;28;20863;-79
2022/09/04 02:07:46;;;;;;;4.30;3.83;;;13.80;99.90;;;;;;4973346;28;20469;-78
2022/09/04 02:10:21;;;;;;;4.63;3.97;;;13.80;99.90;;;;;;4974045;28;20835;-81
2022/09/04 02:12:57;;;;;;;4.80;3.63;;;13.80;99.90;;;;;;4975576;28;20461;-78
2022/09/04 02:15:34;;;;;;;4.40;4.00;;;13.80;99.90;;;;;;4969153;28;20478;-81
2022/09/04 02:18:10;;;;;;;4.43;4.03;;;13.80;99.90;;;;;;4975350;28;20778;-78
2022/09/04 02:20:43;;;;;;;4.10;3.53;;;13.70;99.90;;;;;;4969077;28;20458;-78
2022/09/04 02:23:17;;;;;;;3.70;3.40;;;13.70;99.90;;;;;;4975465;28;20458;-77
2022/09/04 02:25:50;;;;;;;4.10;3.70;;;13.70;99.90;;;;;;4975303;28;20454;-78
2022/09/04 02:28:28;;;;;;;4.83;3.70;;;13.60;99.90;;;;;;4975131;28;20454;-79
2022/09/04 02:31:01;;;;;;;4.27;3.87;;;13.60;99.90;;;;;;4973957;28;20945;-77
2022/09/04 02:33:36;;;;;;;3.97;3.60;;;14.50;99.90;;;;;;4972839;28;20454;-78
2022/09/04 02:36:09;;;;;;;4.47;4.07;;;13.60;99.90;;;;;;4975246;28;20457;-77
2022/09/04 02:38:44;;;;;;;4.23;3.83;;;13.50;99.90;;;;;;4975088;28;20457;-77
2022/09/04 02:41:19;;;;;;;4.30;3.90;;;13.50;99.90;;;;;;4971072;28;20461;-78
2022/09/04 02:44:01;;;;;;;3.90;3.50;;;13.50;99.90;;;;;;4975027;28;20520;-78
2022/09/04 02:46:33;;;;;;;4.63;3.77;;;13.50;99.90;;;;;;4974973;28;20446;-77
2022/09/04 02:49:09;;;;;;;5.27;3.50;;;13.50;99.90;;;;;;4974883;28;20458;-77
2022/09/04 02:52:00;;;;;;;4.33;3.50;;;13.40;99.90;;;;;;4974883;28;20469;-77
2022/09/04 02:54:39;;;;;;;6.50;3.50;;;13.40;99.90;;;;;;4974793;28;20454;-78
2022/09/04 02:57:18;;;;;;;5.00;3.73;;;13.40;99.90;;;;;;4974774;28;20481;-77
2022/09/04 02:59:58;;;;;;;3.87;3.43;;;13.40;99.90;;;;;;4973319;28;20450;-77
2022/09/04 03:02:31;;;;;;;3.90;3.60;;;13.40;99.90;;;;;;4974694;28;20450;-77
2022/09/04 03:05:04;;;;;;;4.43;3.67;;;13.40;99.90;;;;;;4974443;28;21019;-79
2022/09/04 03:07:35;;;;;;;4.97;3.23;;;13.30;99.90;;;;;;4973819;28;20541;-77
2022/09/04 03:10:10;;;;;;;4.17;3.87;;;13.30;99.90;;;;;;4974415;28;20451;-78
2022/09/04 03:12:43;;;;;;;4.13;3.17;;;13.30;99.90;;;;;;4974631;28;20539;-77
2022/09/04 03:15:20;;;;;;;4.20;3.20;;;13.30;99.90;;;;;;4973069;28;20481;-80
2022/09/04 03:17:56;;;;;;;7.10;3.60;;;13.30;99.90;;;;;;4974539;28;20774;-78
2022/09/04 03:20:26;;;;;;;4.17;3.50;;;13.30;99.90;;;;;;4974417;28;20476;-78
2022/09/04 03:22:58;;;;;;;3.67;3.00;;;13.30;99.90;;;;;;4974478;28;20454;-77
2022/09/04 03:26:06;;;;;;;3.60;3.13;;;13.30;99.90;;;;;;4974296;28;20497;-78
2022/09/04 03:28:45;;;;;;;9.17;3.50;;;13.40;99.90;;;;;;4945693;28;20980;-79
2022/09/04 03:31:30;;;;;;;7.10;4.20;;;13.40;99.90;;;;;;4973011;28;20464;-80
2022/09/04 03:34:11;;;;;;;4.03;3.63;;;13.40;99.90;;;;;;4974114;28;20461;-76
2022/09/04 03:36:46;;;;;;;4.37;3.90;;;13.30;99.90;;;;;;4974248;28;20483;-77
2022/09/04 03:39:21;;;;;;;4.00;3.60;;;13.30;99.90;;;;;;4974121;28;20464;-77
2022/09/04 03:41:56;;;;;;;4.20;3.53;;;13.30;99.90;;;;;;4974203;28;20456;-76
2022/09/04 03:44:35;;;;;;;3.73;3.43;;;13.20;99.90;;;;;;4969915;28;20854;-76
2022/09/04 03:47:12;;;;;;;4.83;3.90;;;13.20;99.90;;;;;;4974179;28;20458;-79
2022/09/04 03:49:52;;;;;;;4.90;3.13;;;13.20;99.90;;;;;;4973927;28;20449;-77
2022/09/04 03:52:31;;;;;;;4.50;3.70;;;13.20;99.90;;;;;;4974090;28;20454;-78
2022/09/04 03:55:19;;;;;;;3.70;3.40;;;13.20;99.90;;;;;;4973973;28;21012;-78
2022/09/04 03:58:07;;;;;;;4.07;3.47;;;13.10;99.90;;;;;;4974030;28;20450;-77
2022/09/04 04:00:43;;;;;;;3.17;2.80;;;13.10;99.90;;;;;;4972757;28;20976;-76
2022/09/04 04:03:36;;;;;;;4.03;3.47;;;13.10;99.90;;;;;;4973882;28;20470;-77
2022/09/04 04:06:18;;;;;;;2.80;2.60;;;13.10;99.90;;;;;;4973894;28;20454;-77
2022/09/04 04:09:10;;;;;;;3.13;2.93;;;13.00;99.90;;;;;;4973991;28;20889;-77
2022/09/04 04:12:02;;;;;;;4.57;2.80;;;12.90;99.90;;;;;;4974018;28;20481;-80
2022/09/04 04:14:44;;;;;;;3.27;2.97;;;12.90;99.90;;;;;;4972748;28;20446;-78
2022/09/04 04:17:33;;;;;;;3.47;3.17;;;13.00;99.90;;;;;;4954618;29;20540;-77
2022/09/04 04:20:12;;;;;;;3.17;2.93;;;12.90;99.90;;;;;;4958357;29;20454;-76
2022/09/04 04:23:02;;;;;;;7.40;3.30;;;12.90;99.90;;;;;;4958350;29;20458;-76
2022/09/04 04:25:48;;;;;;;3.13;2.90;;;12.80;99.90;;;;;;4958240;29;20860;-79
2022/09/04 04:28:24;;;;;;;3.50;3.20;;;12.90;99.90;;;;;;4957627;29;20585;-77
2022/09/04 04:30:53;;;;;;;3.83;3.43;;;13.00;99.90;;;;;;4956889;29;20458;-76
2022/09/04 04:33:41;;;;;;;3.47;3.17;;;12.90;99.90;;;;;;4958142;29;20783;-78
2022/09/04 04:36:18;;;;;;;3.73;3.33;;;12.80;99.90;;;;;;4958110;29;20443;-76
2022/09/04 04:39:04;;;;;;;4.13;3.57;;;12.80;99.90;;;;;;4958015;29;20659;-76
2022/09/04 04:45:48;;;;;;;3.67;3.37;;;12.70;99.90;;;;;;4955638;28;20530;-78
2022/09/04 04:47:33;;;;;;;3.43;3.13;;;12.70;99.90;;;;;;4957722;28;20530;-76
2022/09/04 04:50:07;;;;;;;4.47;3.43;;;12.70;99.90;;;;;;4957908;29;20549;-76
2022/09/04 04:52:48;;;;;;;5.37;3.40;;;12.70;99.90;;;;;;4957811;29;20478;-76
2022/09/04 04:55:20;;;;;;;4.63;3.57;;;12.70;99.90;;;;;;4957760;29;20905;-76
2022/09/04 04:58:14;;;;;;;4.77;3.57;;;12.70;99.90;;;;;;4957656;29;20506;-76
2022/09/04 05:00:46;;;;;;;3.50;3.20;;;12.70;99.90;;;;;;4956306;29;20451;-76
2022/09/04 05:03:23;;;;;;;4.13;3.13;;;12.70;99.90;;;;;;4954440;29;20522;-77
2022/09/04 05:06:01;;;;;;;6.70;3.30;;;12.70;99.90;;;;;;4957464;29;20569;-76
2022/09/04 05:08:38;;;;;;;3.67;3.30;;;12.70;99.90;;;;;;4957455;29;20457;-76
2022/09/04 05:11:11;;;;;;;5.70;3.80;;;12.70;99.90;;;;;;4957413;29;20455;-77
2022/09/04 05:13:49;;;;;;;4.83;3.93;;;12.80;99.90;;;;;;4957401;29;20958;-76
2022/09/04 05:16:25;;;;;;;3.90;3.57;;;12.90;99.90;;;;;;4968065;28;21019;-77
2022/09/04 05:18:56;;;;;;;3.90;3.60;;;12.90;99.90;;;;;;4976645;28;20957;-76
2022/09/04 05:21:32;;;;;;;4.63;3.80;;;12.90;99.90;;;;;;4976549;28;20812;-77
2022/09/04 05:24:05;;;;;;;4.23;3.30;;;13.00;99.90;;;;;;4976432;28;20454;-79
2022/09/04 05:26:39;;;;;;;4.73;4.33;;;13.00;99.90;;;;;;4976453;28;20450;-76
2022/09/04 05:29:12;;;;;;;4.30;3.90;;;13.10;99.90;;;;;;4974758;28;20465;-76
2022/09/04 05:31:47;;;;;;;4.97;4.50;;;13.20;99.90;;;;;;4975835;28;20447;-76
2022/09/04 05:34:25;;;;;;;5.27;4.70;;;13.50;99.90;;;;;;4976226;28;20460;-77
2022/09/04 05:37:03;;;;;;;5.03;4.63;;;13.90;99.90;;;;;;4976254;28;20460;-77
2022/09/04 05:39:41;;;;;;;4.73;4.33;;;14.10;99.90;;;;;;4976130;28;20450;-78
2022/09/04 05:42:36;;;;;;;4.63;4.23;;;14.30;99.90;;;;;;4976159;28;20450;-79
2022/09/04 05:45:13;;;;;;;6.33;4.13;;;14.70;99.90;;;;;;4974847;28;20996;-79
2022/09/04 05:47:47;;;;;;;4.00;3.70;;;14.90;99.90;;;;;;4975995;28;20454;-80
2022/09/04 05:50:32;;;;;;;3.80;3.40;;;15.20;99.90;;;;;;4976054;28;20456;-80
2022/09/04 05:53:29;;;;;;;3.70;3.07;;;15.60;99.90;;;;;;4975827;28;20450;-81
2022/09/04 05:56:23;;;;;;;4.40;3.90;;;15.90;99.90;;;;;;4970858;28;20473;-81
2022/09/04 05:59:13;;;;;;;3.60;3.27;;;16.20;99.90;;;;;;4975864;28;20462;-83
2022/09/04 06:02:00;;;;;;;4.40;3.70;;;16.60;99.90;;;;;;4973387;28;20455;-81
2022/09/04 06:04:59;;;;;;;4.13;3.47;;;16.80;99.90;;;;;;4975819;28;20489;-82
2022/09/04 06:07:31;;;;;;;3.30;3.10;;;17.00;99.90;;;;;;4975673;28;20450;-81
2022/09/04 06:10:09;;;;;;;3.50;3.20;;;17.50;99.90;;;;;;4975859;28;20938;-85
2022/09/04 06:13:16;;;;;;;4.57;3.50;;;17.60;99.90;;;;;;4972893;28;20446;-86
2022/09/04 06:15:53;;;;;;;6.90;3.23;;;17.90;99.90;;;;;;4971103;28;20482;-89
2022/09/04 06:18:52;;;;;;;3.57;2.87;;;18.30;99.90;;;;;;4973314;28;20473;-83
2022/09/04 06:21:45;;;;;;;4.00;3.67;;;18.60;99.90;;;;;;4976687;28;20469;-89
2022/09/04 06:24:32;;;;;;;3.53;3.33;;;19.00;99.90;;;;;;4979573;28;20447;-84
2022/09/04 06:27:23;;;;;;;3.37;3.07;;;19.30;99.90;;;;;;4976589;28;20465;-90
2022/09/04 06:30:03;;;;;;;4.30;3.00;;;19.70;99.90;;;;;;4975124;28;20450;-84
2022/09/04 06:32:47;;;;;;;3.20;2.90;;;20.00;99.90;;;;;;4975867;28;20454;-85
2022/09/04 06:35:25;;;;;;;2.90;2.70;;;20.30;99.90;;;;;;4975876;28;20806;-90
2022/09/04 06:38:06;;;;;;;2.97;2.77;;;20.60;99.90;;;;;;4975921;28;20458;-89
2022/09/04 06:40:46;;;;;;;2.73;2.50;;;21.00;99.90;;;;;;4975291;28;20446;-86
2022/09/04 06:43:26;;;;;;;3.00;2.70;;;21.00;99.90;;;;;;4975166;28;20457;-87
2022/09/04 06:46:01;;;;;;;2.20;2.10;;;21.00;99.90;;;;;;4970957;28;20496;-85
2022/09/04 06:48:37;;;;;;;3.57;2.50;;;21.00;99.90;;;;;;4975559;28;20457;-85
2022/09/04 06:51:17;;;;;;;2.60;2.40;;;21.30;99.90;;;;;;4975144;28;20461;-85
2022/09/04 06:53:56;;;;;;;3.20;3.00;;;21.30;99.90;;;;;;4975137;28;20454;-85
2022/09/04 06:56:38;;;;;;;3.80;2.70;;;21.40;99.90;;;;;;4975002;28;20461;-85
2022/09/04 06:59:17;;;;;;;2.67;2.23;;;21.50;99.90;;;;;;4973952;28;20456;-85
2022/09/04 07:01:59;;;;;;;3.07;2.67;;;21.70;99.90;;;;;;4974634;28;20446;-85
2022/09/04 07:04:40;;;;;;;2.83;2.53;;;21.80;99.90;;;;;;4974985;28;20835;-88
2022/09/04 07:07:15;;;;;;;2.40;2.20;;;21.30;99.90;;;;;;4975019;28;20464;-84
2022/09/04 07:09:46;;;;;;;2.70;1.90;;;21.70;99.90;;;;;;4980738;28;20457;-83
2022/09/04 07:12:47;;;;;;;2.10;2.00;;;21.60;99.90;;;;;;4999539;28;20452;-85
2022/09/04 07:15:43;;;;;;;4.90;2.70;;;21.80;99.90;;;;;;4975472;28;20474;-87
2022/09/04 07:18:35;;;;;;;2.23;2.00;;;22.20;99.90;;;;;;4971625;28;20465;-84
2022/09/04 07:21:11;;;;;;;2.73;1.93;;;22.20;99.90;;;;;;4974584;28;20458;-83
2022/09/04 07:23:48;;;;;;;4.10;1.90;;;22.50;99.90;;;;;;4974667;28;20508;-84
2022/09/04 07:26:27;;;;;;;2.60;2.10;;;22.80;99.90;;;;;;4974551;28;20489;-83
2022/09/04 07:29:11;;;;;;;1.97;1.87;;;23.20;99.90;;;;;;4974406;28;20457;-84
2022/09/04 07:31:42;;;;;;;2.30;1.90;;;23.80;99.90;;;;;;4974421;28;20446;-84
2022/09/04 07:34:18;;;;;;;1.87;1.60;;;21.80;99.90;;;;;;4974575;28;20778;-83
2022/09/04 07:36:54;;;;;;;1.80;1.70;;;23.20;99.90;;;;;;4974622;28;20461;-84
2022/09/04 07:39:28;;;;;;;2.57;1.93;;;23.20;99.90;;;;;;4974496;28;20450;-88
2022/09/04 07:42:04;;;;;;;2.10;1.70;;;23.90;99.90;;;;;;4974490;28;20446;-86
2022/09/04 07:44:37;;;;;;;1.43;1.33;;;23.60;99.90;;;;;;4973542;28;20454;-85
2022/09/04 07:47:12;;;;;;;2.80;1.50;;;23.50;99.90;;;;;;4971899;28;20481;-82
2022/09/04 07:49:53;;;;;;;1.97;1.80;;;23.50;99.90;;;;;;4974258;28;20532;-82
2022/09/04 07:52:44;;;;;;;1.90;1.80;;;23.50;99.90;;;;;;4975260;28;20801;-83
2022/09/04 07:55:26;;;;;;;1.80;1.70;;;23.80;99.90;;;;;;4978953;28;20454;-85
2022/09/04 07:58:30;;;;;;;1.67;1.57;;;23.80;99.90;;;;;;4979190;28;20453;-87
2022/09/04 08:01:13;;;;;;;1.97;1.87;;;23.70;99.90;;;;;;4975084;28;20445;-89
2022/09/04 08:04:01;;;;;;;1.70;1.60;;;23.80;99.90;;;;;;4979088;28;20454;-85
2022/09/04 08:06:37;;;;;;;3.00;1.80;;;23.80;99.90;;;;;;4979294;28;20498;-90
2022/09/04 08:09:36;;;;;;;2.07;1.57;;;23.90;99.90;;;;;;4976137;28;20901;-89
2022/09/04 08:12:33;;;;;;;1.90;1.67;;;24.20;99.90;;;;;;4977359;28;20450;-92
2022/09/04 08:15:13;;;;;;;1.60;1.50;;;24.70;99.90;;;;;;4977713;28;20550;-88
2022/09/04 08:18:00;;;;;;;1.40;1.30;;;24.00;99.90;;;;;;4978694;28;20548;-91
2022/09/04 08:20:44;;;;;;;2.17;1.60;;;24.00;99.90;;;;;;4977821;28;20453;-84
2022/09/04 08:23:42;;;;;;;1.87;1.30;;;23.40;99.90;;;;;;4978310;28;20453;-86
2022/09/04 08:26:16;;;;;;;1.93;1.83;;;22.00;99.90;;;;;;4978599;28;20504;-92
2022/09/04 08:29:01;;;;;;;2.27;1.93;;;21.50;99.90;;;;;;4944460;28;20458;-83
2022/09/04 08:31:31;;;;;;;2.27;2.07;;;22.60;99.90;;;;;;4977835;28;20458;-83
2022/09/04 08:34:22;;;;;;;1.90;1.70;;;23.70;99.90;;;;;;4978460;28;20858;-86
2022/09/04 08:36:58;;;;;;;5.20;2.37;;;24.30;99.90;;;;;;4967794;28;20462;-80
2022/09/04 08:39:33;;;;;;;2.60;1.87;;;25.20;99.90;;;;;;4975194;28;20456;-83
2022/09/04 08:42:19;;;;;;;2.10;1.60;;;25.90;98.20;;;;;;4977999;28;20453;-83
2022/09/04 08:45:31;;;;;;;2.60;2.10;;;26.20;96.00;;;;;;4976950;28;20453;-86
2022/09/04 08:48:25;;;;;;;2.37;1.20;;;26.00;95.00;;;;;;4974952;28;20875;-82
2022/09/04 08:51:28;;;;;;;1.50;1.40;;;25.70;92.40;;;;;;4977851;28;20500;-84
2022/09/04 08:54:20;;;;;;;1.93;1.53;;;26.00;92.70;;;;;;4928760;28;20492;-88
2022/09/04 08:57:02;;;;;;;1.57;1.40;;;25.90;91.60;;;;;;4977971;28;20454;-86
2022/09/04 08:59:53;;;;;;;1.57;1.30;;;26.10;91.30;;;;;;4972626;28;20462;-92
2022/09/04 09:02:53;;;;;;;3.53;1.73;;;26.90;90.90;;;;;;4977349;28;20477;-93
2022/09/04 09:05:54;;;;;;;1.50;1.07;;;27.30;90.60;;;;;;4974661;28;20482;-90
2022/09/04 09:08:44;;;;;;;2.30;1.30;;;27.60;85.40;;;;;;4977317;28;20458;-86
2022/09/04 09:11:31;;;;;;;1.50;1.40;;;26.70;86.60;;;;;;4971736;28;20469;-88
2022/09/04 09:14:39;;;;;;;1.60;1.50;;;27.60;88.00;;;;;;4976920;28;20458;-83
2022/09/04 09:17:12;;;;;;;2.17;1.50;;;27.50;87.90;;;;;;4942911;28;20494;-87
2022/09/04 09:19:45;;;;;;;2.60;1.30;;;27.30;85.90;;;;;;4977421;28;20458;-84
2022/09/04 09:22:36;;;;;;;1.30;1.13;;;27.00;84.40;;;;;;4977475;28;20933;-86
2022/09/04 09:25:15;;;;;;;2.97;1.30;;;27.20;85.40;;;;;;4975765;28;20811;-80
2022/09/04 09:28:12;;;;;;;4.90;4.50;;;27.60;84.30;;;;;;4973504;28;20456;-86
2022/09/04 09:31:20;;;;;;;6.20;5.60;;;28.20;83.70;;;;;;4975705;28;20450;-87
2022/09/04 09:34:10;;;;;;;3.60;3.30;;;28.70;81.10;;;;;;4921366;29;20520;-81
2022/09/04 09:37:06;;;;;;;1.40;1.30;;;28.00;78.90;;;;;;4973026;28;20454;-87
2022/09/04 09:40:19;;;;;;;1.40;1.30;;;27.80;80.80;;;;;;4979091;28;20466;-81
2022/09/04 09:43:08;;;;;;;1.67;1.47;;;28.20;78.70;;;;;;4977940;28;20450;-83
2022/09/04 09:46:03;;;;;;;2.17;1.17;;;27.80;79.30;;;;;;4981644;28;20490;-82
2022/09/04 09:48:55;;;;;;;2.50;1.63;;;28.30;78.00;;;;;;5000422;28;20445;-90
2022/09/04 09:51:48;;;;;;;1.33;1.23;;;28.00;75.60;;;;;;4974239;28;20446;-89
2022/09/04 09:54:47;;;;;;;1.90;1.30;;;27.80;74.40;;;;;;4974608;28;20949;-83
2022/09/04 09:57:48;;;;;;;1.63;1.53;;;26.90;80.30;;;;;;4977112;28;20461;-87
2022/09/04 10:00:16;;;;;;;1.60;1.50;;;26.30;82.00;;;;;;4975116;28;20964;-86
2022/09/04 10:03:28;;;;;;;1.60;1.00;;;26.20;83.80;;;;;;4976709;28;20525;-84
2022/09/04 10:06:40;;;;;;;3.67;2.53;;;27.30;80.20;;;;;;4943682;28;20501;-85
2022/09/04 10:09:38;;;;;;;2.40;2.20;;;26.80;80.40;;;;;;4976879;28;20454;-87
2022/09/04 10:12:36;;;;;;;1.80;1.30;;;26.10;81.60;;;;;;4975684;28;20458;-84
2022/09/04 10:15:29;;;;;;;1.50;1.40;;;25.10;88.70;;;;;;4974358;28;20469;-85
2022/09/04 10:18:35;;;;;;;2.07;1.50;;;24.60;91.00;;;;;;4977418;28;20516;-86
2022/09/04 10:21:28;;;;;;;1.73;1.30;;;25.50;89.10;;;;;;4975596;28;20454;-85
2022/09/04 10:24:29;;;;;;;1.93;1.50;;;26.20;81.90;;;;;;4975189;28;20461;-86
2022/09/04 10:27:25;;;;;;;1.77;1.67;;;25.90;82.40;;;;;;4973485;28;20540;-86
2022/09/04 10:30:07;;;;;;;2.10;1.53;;;25.10;88.10;;;;;;4971046;28;20465;-86
2022/09/04 10:33:06;;;;;;;2.40;1.70;;;24.70;91.00;;;;;;4941590;28;20449;-85
2022/09/04 10:35:43;;;;;;;2.33;2.13;;;24.10;91.90;;;;;;4977240;28;20450;-86
2022/09/04 10:38:33;;;;;;;1.73;1.63;;;24.20;93.50;;;;;;4976552;28;20477;-85
2022/09/04 10:41:34;;;;;;;5.13;1.50;;;24.50;90.30;;;;;;4974605;28;20858;-86
2022/09/04 10:44:19;;;;;;;2.17;1.73;;;25.80;89.10;;;;;;4975983;28;20533;-84
2022/09/04 10:46:56;;;;;;;1.80;1.50;;;25.00;84.20;;;;;;4976981;28;20498;-85
2022/09/04 10:49:40;;;;;;;2.00;1.20;;;24.50;85.80;;;;;;4976426;28;20450;-87
2022/09/04 10:52:59;;;;;;;1.47;1.37;;;24.20;83.30;;;;;;4976259;28;20453;-84
2022/09/04 10:56:02;;;;;;;1.57;1.47;;;25.10;81.00;;;;;;4976198;28;20445;-86
2022/09/04 10:58:38;;;;;;;2.03;1.20;;;25.80;78.00;;;;;;4974651;28;20971;-86
2022/09/04 11:01:44;;;;;;;1.30;1.20;;;26.30;80.00;;;;;;4975234;28;20474;-85
2022/09/04 11:04:33;;;;;;;1.77;1.50;;;25.70;73.90;;;;;;4977139;28;20450;-85
2022/09/04 11:07:21;;;;;;;1.20;1.10;;;24.90;79.20;;;;;;4976862;28;20498;-84
2022/09/04 11:10:09;;;;;;;1.67;1.50;;;24.60;82.20;;;;;;4973258;28;20454;-83
2022/09/04 11:13:09;;;;;;;1.93;1.60;;;24.10;87.00;;;;;;4976589;28;20806;-85
2022/09/04 11:15:57;;;;;;;1.30;1.20;;;24.70;90.00;;;;;;4975244;28;20505;-86
2022/09/04 11:19:00;;;;;;;1.90;1.70;;;25.70;84.00;;;;;;4975479;28;20489;-85
2022/09/04 11:22:14;;;;;;;2.00;1.80;;;27.30;78.20;;;;;;4975364;28;20457;-83
2022/09/04 11:25:28;;;;;;;2.20;1.50;;;27.60;74.70;;;;;;4974738;28;20454;-85
2022/09/04 11:28:19;;;;;;;1.80;1.40;;;28.00;79.10;;;;;;4975441;28;21008;-85
2022/09/04 11:31:04;;;;;;;1.70;1.60;;;27.10;72.40;;;;;;4974181;28;20446;-85
2022/09/04 11:34:04;;;;;;;1.40;1.30;;;27.50;77.40;;;;;;4974606;28;20466;-86
2022/09/04 11:37:24;;;;;;;1.97;1.80;;;27.80;74.20;;;;;;4971804;28;20468;-86
2022/09/04 11:40:28;;;;;;;3.80;1.30;;;27.40;68.70;;;;;;4979942;28;20450;-87
2022/09/04 11:43:30;;;;;;;3.50;1.83;;;27.40;71.40;;;;;;4982685;28;20468;-87
2022/09/04 11:46:25;;;;;;;1.97;1.77;;;28.10;70.00;;;;;;4976878;28;20454;-87
2022/09/04 11:49:16;;;;;;;1.63;1.40;;;26.90;71.60;;;;;;4977465;28;20458;-85
2022/09/04 11:52:12;;;;;;;1.93;1.30;;;26.10;72.10;;;;;;4974406;28;20488;-84
2022/09/04 11:55:18;;;;;;;1.43;1.33;;;25.10;78.00;;;;;;4973085;28;20540;-85
2022/09/04 11:57:56;;;;;;;2.50;1.43;;;24.40;81.90;;;;;;4974372;28;20454;-84
2022/09/04 12:00:24;;;;;;;1.43;1.33;;;24.50;82.40;;;;;;4973758;28;20462;-84
2022/09/04 12:03:28;;;;;;;1.77;1.67;;;25.70;78.30;;;;;;4967926;28;20505;-85
2022/09/04 12:06:27;;;;;;;1.47;1.37;;;27.00;69.60;;;;;;4969755;28;20467;-85
2022/09/04 12:09:31;;;;;;;1.77;1.40;;;26.70;76.50;;;;;;4963159;28;20821;-89
2022/09/04 12:12:36;;;;;;;1.43;1.33;;;26.20;72.90;;;;;;4974171;28;20953;-88
2022/09/04 12:15:21;;;;;;;8.07;2.43;;;26.90;69.80;;;;;;4897666;28;20977;-84
2022/09/04 12:18:43;;;;;;;1.73;1.40;;;27.50;65.40;;;;;;4973699;28;20561;-84
2022/09/04 12:21:39;;;;;;;1.37;1.27;;;27.40;69.60;;;;;;4914426;29;20460;-87
2022/09/04 12:24:35;;;;;;;1.53;1.43;;;27.10;69.00;;;;;;4914452;29;20556;-87
2022/09/04 12:27:25;;;;;;;5.83;1.60;;;26.30;71.40;;;;;;4964674;28;20600;-86
2022/09/04 12:30:05;;;;;;;1.30;1.20;;;26.60;72.40;;;;;;4974088;28;20454;-85
2022/09/04 12:33:07;;;;;;;5.40;1.47;;;26.10;72.90;;;;;;4975053;28;20458;-84
2022/09/04 12:36:18;;;;;;;3.57;1.77;;;25.80;76.20;;;;;;4974356;28;20453;-85
2022/09/04 12:39:21;;;;;;;2.80;1.73;;;25.50;77.90;;;;;;4974005;28;20480;-85
2022/09/04 12:41:59;;;;;;;3.43;1.77;;;25.30;82.70;;;;;;4976983;28;20446;-88
2022/09/04 12:44:36;;;;;;;1.40;1.30;;;24.90;81.50;;;;;;4916393;29;20457;-85
2022/09/04 12:47:16;;;;;;;1.63;1.50;;;24.90;75.60;;;;;;4917629;29;21141;-87
2022/09/04 12:50:01;;;;;;;1.73;1.63;;;24.60;75.80;;;;;;4917657;29;21139;-88
2022/09/04 12:52:40;;;;;;;3.27;1.67;;;24.60;83.80;;;;;;4917642;29;20998;-87
2022/09/04 12:55:15;;;;;;;2.00;1.50;;;25.30;85.40;;;;;;4917529;29;20448;-88
2022/09/04 12:57:54;;;;;;;1.40;1.30;;;25.20;81.00;;;;;;4917612;29;20464;-88
2022/09/04 13:00:25;;;;;;;1.43;1.33;;;25.20;81.90;;;;;;4916079;29;20472;-88
2022/09/04 13:03:02;;;;;;;2.60;1.30;;;25.30;84.60;;;;;;4953675;28;20960;-85
2022/09/04 13:05:38;;;;;;;4.90;1.57;;;25.80;85.50;;;;;;4977062;28;20464;-84
2022/09/04 13:08:18;;;;;;;1.60;1.50;;;26.80;90.30;;;;;;4976894;28;20493;-86
2022/09/04 13:10:59;;;;;;;1.40;1.30;;;26.90;74.80;;;;;;4976965;28;20454;-87
2022/09/04 13:13:38;;;;;;;1.30;1.20;;;27.50;71.10;;;;;;4974921;28;20462;-85
2022/09/04 13:16:11;;;;;;;1.77;1.47;;;27.20;65.70;;;;;;4975353;28;20513;-85
2022/09/04 13:18:57;;;;;;;1.50;1.40;;;27.10;70.60;;;;;;4974255;28;20439;-85
2022/09/04 13:21:39;;;;;;;1.73;1.53;;;26.70;71.60;;;;;;4977924;28;20848;-86
2022/09/04 13:24:19;;;;;;;1.50;1.30;;;26.20;76.20;;;;;;4971992;28;20454;-87
2022/09/04 13:27:07;;;;;;;1.73;1.63;;;26.10;79.60;;;;;;4977583;28;20544;-87
2022/09/04 13:30:00;;;;;;;1.73;1.60;;;26.40;78.50;;;;;;4976182;28;20457;-87
2022/09/04 13:32:58;;;;;;;1.63;1.53;;;27.00;73.20;;;;;;4977139;28;20822;-87
2022/09/04 13:35:42;;;;;;;2.10;1.90;;;27.10;71.90;;;;;;4968952;28;20458;-88
2022/09/04 13:38:27;;;;;;;1.60;1.50;;;27.30;70.10;;;;;;4976355;28;20458;-86
2022/09/04 13:41:18;;;;;;;2.70;1.47;;;28.00;64.20;;;;;;4976413;28;20957;-84
2022/09/04 13:44:08;;;;;;;1.93;1.43;;;28.30;71.60;;;;;;4976230;28;20450;-88
2022/09/04 13:46:40;;;;;;;1.33;1.23;;;27.90;73.70;;;;;;4975033;28;20462;-86
2022/09/04 13:49:10;;;;;;;1.50;1.33;;;27.10;74.10;;;;;;4973273;28;20812;-84
2022/09/04 13:51:44;;;;;;;1.50;1.40;;;26.20;78.30;;;;;;4975396;28;20933;-85
2022/09/04 13:54:17;;;;;;;1.60;1.30;;;26.50;78.70;;;;;;4976063;28;20806;-86
2022/09/04 13:56:49;;;;;;;1.60;1.50;;;27.30;74.60;;;;;;4972880;28;20454;-85
2022/09/04 13:59:20;;;;;;;1.60;1.50;;;27.00;74.50;;;;;;4969543;28;20478;-86
2022/09/04 14:01:53;;;;;;;1.70;1.60;;;27.30;72.60;;;;;;4966444;28;20447;-88
2022/09/04 14:04:25;;;;;;;1.63;1.53;;;27.50;69.80;;;;;;4971252;28;20461;-86
2022/09/04 14:07:01;;;;;;;4.43;1.90;;;27.80;72.60;;;;;;4976004;28;20482;-86
2022/09/04 14:09:30;;;;;;;2.00;1.70;;;27.90;68.20;;;;;;4975722;28;20489;-88
2022/09/04 14:12:17;;;;;;;1.80;1.70;;;28.00;66.80;;;;;;4975798;28;20447;-86
2022/09/04 14:15:20;;;;;;;1.73;1.63;;;28.40;69.30;;;;;;4974478;28;20450;-85
2022/09/04 14:17:56;;;;;;;1.67;1.40;;;28.40;66.60;;;;;;4975453;28;20461;-86